Time;durP1;ratioP1;P1;durP2;ratioP2;P2;SDS_P1;SDS_P2;PMS_P1;PMS_P2;Temp;Humidity;BMP_temperature;BMP_pressure;BME280_temperature;BME280_humidity;BME280_pressure;Samples;Min_cycle;Max_cycle;Signal;HPM_P1;HPM_P2
2023/12/07 00:00:31;;;;;;;169.90;98.30;;;;;;;-4.95;93.24;96481.33;108777;1273;22543;-79
2023/12/07 00:03:21;;;;;;;163.20;94.50;;;;;;;-4.98;93.21;96481.23;108770;1271;26121;-79
2023/12/07 00:05:50;;;;;;;173.20;95.10;;;;;;;-4.99;93.04;96485.35;108788;1273;25424;-79
2023/12/07 00:08:20;;;;;;;171.20;95.00;;;;;;;-5.02;93.06;96489.79;108783;1272;22489;-79
2023/12/07 00:10:51;;;;;;;158.60;93.60;;;;;;;-5.01;93.21;96489.07;108795;1269;23024;-79
2023/12/07 00:13:21;;;;;;;171.70;94.40;;;;;;;-5.00;93.19;96491.16;108772;1269;22533;-79
2023/12/07 00:15:52;;;;;;;156.50;89.10;;;;;;;-5.01;93.32;96489.99;108760;1273;24198;-79
2023/12/07 00:18:20;;;;;;;162.10;88.90;;;;;;;-5.02;93.28;96491.65;108779;1269;26529;-79
2023/12/07 00:20:48;;;;;;;171.60;94.50;;;;;;;-5.04;93.12;96491.11;108800;1269;22492;-79
2023/12/07 00:23:17;;;;;;;157.00;91.60;;;;;;;-5.07;93.13;96494.50;108796;1251;22516;-79
2023/12/07 00:25:46;;;;;;;163.40;92.70;;;;;;;-5.10;93.07;96494.66;108791;1273;22511;-79
2023/12/07 00:28:14;;;;;;;163.90;95.60;;;;;;;-5.13;93.03;96497.02;108725;1273;22577;-79
2023/12/07 00:30:43;;;;;;;169.10;97.50;;;;;;;-5.17;93.07;96498.63;108808;1273;22520;-79
2023/12/07 00:33:11;;;;;;;182.40;96.40;;;;;;;-5.16;93.23;96494.96;108757;1265;22565;-79
2023/12/07 00:35:40;;;;;;;174.20;93.40;;;;;;;-5.11;93.32;96499.50;108800;1273;22538;-79
2023/12/07 00:38:08;;;;;;;172.40;97.30;;;;;;;-5.10;93.25;96498.98;108765;1257;22520;-79
2023/12/07 00:40:39;;;;;;;169.90;95.10;;;;;;;-5.11;93.31;96503.67;108765;1273;22473;-79
2023/12/07 00:43:08;;;;;;;174.20;93.00;;;;;;;-5.12;93.36;96501.16;108808;1273;24094;-79
2023/12/07 00:45:37;;;;;;;172.30;96.10;;;;;;;-5.10;93.39;96503.05;108791;1266;22612;-79
2023/12/07 00:48:08;;;;;;;175.60;98.70;;;;;;;-5.08;93.56;96503.29;108737;1272;24244;-79
2023/12/07 00:50:40;;;;;;;174.00;99.70;;;;;;;-5.07;93.52;96499.90;108762;1271;22582;-79
2023/12/07 00:53:10;;;;;;;176.10;98.00;;;;;;;-5.06;93.56;96497.34;108746;1273;22528;-79
2023/12/07 00:55:40;;;;;;;169.00;98.80;;;;;;;-5.02;93.70;96497.45;108804;1273;22479;-79
2023/12/07 00:58:07;;;;;;;;;;;;;;;-4.99;93.76;96498.40;108784;1270;23241;-79
2023/12/07 01:00:38;;;;;;;168.50;92.80;;;;;;;-4.96;93.85;96501.13;108807;1273;22544;-79
2023/12/07 01:03:06;;;;;;;161.10;89.80;;;;;;;-4.95;93.67;96496.88;108760;1269;23750;-79
2023/12/07 01:05:35;;;;;;;178.40;96.60;;;;;;;-4.96;93.56;96494.73;108790;1269;25297;-79
2023/12/07 01:08:06;;;;;;;171.40;94.90;;;;;;;-4.98;93.47;96489.89;108797;1273;24181;-78
2023/12/07 01:10:34;;;;;;;173.90;97.60;;;;;;;-5.01;93.52;96498.27;108814;1269;22537;-79
2023/12/07 01:13:03;;;;;;;174.00;97.80;;;;;;;-5.02;93.41;96498.05;108792;1273;25371;-79
2023/12/07 01:15:32;;;;;;;172.00;95.80;;;;;;;-5.02;93.63;96497.73;108784;1273;22545;-79
2023/12/07 01:18:00;;;;;;;174.10;97.20;;;;;;;-5.01;93.64;96498.63;108697;1273;22567;-78
2023/12/07 01:20:28;;;;;;;178.80;100.00;;;;;;;-4.99;93.64;96503.56;108785;1273;26580;-79
2023/12/07 01:22:59;;;;;;;170.70;96.80;;;;;;;-4.99;93.74;96502.26;108777;1265;25132;-79
2023/12/07 01:25:28;;;;;;;160.40;87.60;;;;;;;-5.01;93.70;96505.89;108788;1268;22507;-79
2023/12/07 01:27:56;;;;;;;174.70;93.60;;;;;;;-5.06;93.53;96505.65;108764;1273;22539;-79
2023/12/07 01:30:25;;;;;;;174.90;97.90;;;;;;;-5.12;93.43;96506.45;108761;1272;24214;-79
2023/12/07 01:32:53;;;;;;;162.10;95.00;;;;;;;-5.14;93.40;96507.62;108823;1273;24710;-79
2023/12/07 01:35:21;;;;;;;171.30;96.10;;;;;;;-5.17;93.49;96511.64;108731;1274;25300;-79
2023/12/07 01:37:50;;;;;;;169.10;92.40;;;;;;;-5.18;93.54;96510.97;108760;1251;22479;-79
2023/12/07 01:40:18;;;;;;;161.70;90.30;;;;;;;-5.16;93.74;96509.08;108728;1269;22479;-79
2023/12/07 01:42:52;;;;;;;165.90;93.00;;;;;;;-5.12;94.01;96507.92;108804;1269;22513;-79
2023/12/07 01:45:21;;;;;;;166.60;94.80;;;;;;;-5.09;93.88;96510.14;108757;1273;22542;-79
2023/12/07 01:47:52;;;;;;;164.70;92.80;;;;;;;-5.08;93.98;96502.23;108795;1273;22521;-79
2023/12/07 01:50:23;;;;;;;167.60;94.90;;;;;;;-5.04;94.09;96505.88;108782;1262;22530;-79
2023/12/07 01:52:57;;;;;;;155.40;87.20;;;;;;;-5.03;94.03;96509.02;108780;1274;22570;-79
2023/12/07 01:55:27;;;;;;;146.50;83.30;;;;;;;-5.02;94.00;96506.88;108808;1272;22702;-79
2023/12/07 01:57:56;;;;;;;157.40;86.60;;;;;;;-5.07;93.71;96505.78;108767;1269;25390;-79
2023/12/07 02:00:27;;;;;;;160.20;91.60;;;;;;;-5.13;93.78;96503.66;108781;1256;26583;-79
2023/12/07 02:02:56;;;;;;;168.00;92.90;;;;;;;-5.14;93.78;96509.02;108808;1273;22517;-79
2023/12/07 02:05:25;;;;;;;160.10;87.50;;;;;;;-5.12;93.91;96506.36;108797;1269;25427;-79
2023/12/07 02:07:54;;;;;;;167.70;91.20;;;;;;;-5.12;93.94;96506.16;108837;1273;22827;-79
2023/12/07 02:10:23;;;;;;;161.40;91.10;;;;;;;-5.10;94.01;96500.74;108778;1273;22570;-79
2023/12/07 02:12:54;;;;;;;162.80;94.40;;;;;;;-5.05;94.25;96498.98;108843;1273;23893;-79
2023/12/07 02:15:23;;;;;;;168.00;94.90;;;;;;;-5.00;94.49;96497.28;108830;1273;22584;-80
2023/12/07 02:18:05;;;;;;;164.00;97.00;;;;;;;-4.93;94.60;96496.11;108782;1273;22720;-80
2023/12/07 02:20:40;;;;;;;171.90;95.20;;;;;;;-4.87;94.47;96499.52;108786;1273;23845;-80
2023/12/07 02:23:11;;;;;;;164.40;94.80;;;;;;;-4.86;94.46;96500.05;108757;1266;22521;-80
2023/12/07 02:25:48;;;;;;;169.80;96.40;;;;;;;-4.84;94.37;96499.21;108845;1273;24378;-80
2023/12/07 02:28:17;;;;;;;165.20;91.60;;;;;;;-4.83;94.21;96497.33;108788;1272;22555;-79
2023/12/07 02:30:46;;;;;;;164.50;97.40;;;;;;;-4.86;94.06;96496.83;108800;1269;22534;-80
2023/12/07 02:33:15;;;;;;;168.40;94.10;;;;;;;-4.88;94.02;96497.09;108784;1266;22689;-80
2023/12/07 02:35:43;;;;;;;160.40;94.90;;;;;;;-4.86;94.15;96497.17;108817;1269;22528;-80
2023/12/07 02:38:16;;;;;;;154.60;89.80;;;;;;;-4.82;94.32;96497.56;108716;1270;22731;-79
2023/12/07 02:40:46;;;;;;;171.20;94.90;;;;;;;-4.82;94.17;96494.55;108788;1273;24259;-80
2023/12/07 02:43:18;;;;;;;163.50;92.70;;;;;;;-4.86;94.09;96495.19;108808;1273;22522;-79
2023/12/07 02:45:48;;;;;;;170.40;95.20;;;;;;;-4.88;94.11;96497.44;108791;1272;24992;-80
2023/12/07 02:48:17;;;;;;;177.20;97.20;;;;;;;-4.86;94.20;96498.02;108727;1273;22528;-80
2023/12/07 02:50:53;;;;;;;168.70;96.10;;;;;;;-4.81;94.39;96501.08;108835;1269;22968;-80
2023/12/07 02:53:22;;;;;;;168.10;97.30;;;;;;;-4.77;94.34;96498.58;108733;1266;22546;-80
2023/12/07 02:55:50;;;;;;;167.00;94.90;;;;;;;-4.72;94.40;96500.41;108766;1273;22851;-80
2023/12/07 02:58:21;;;;;;;165.00;96.10;;;;;;;-4.69;94.40;96504.22;108729;1272;26238;-80
2023/12/07 03:00:52;;;;;;;162.90;91.10;;;;;;;-4.65;94.45;96506.40;108730;1273;22523;-80
2023/12/07 03:03:20;;;;;;;162.60;95.60;;;;;;;-4.66;94.19;96506.83;108783;1272;22851;-80
2023/12/07 03:05:49;;;;;;;169.70;93.70;;;;;;;-4.65;94.26;96507.63;108784;1273;22526;-80
2023/12/07 03:08:19;;;;;;;168.60;99.10;;;;;;;-4.63;94.41;96509.02;108701;1273;25802;-79
2023/12/07 03:10:48;;;;;;;171.90;95.70;;;;;;;-4.60;94.41;96506.85;108685;1271;140277;-80
2023/12/07 03:13:17;;;;;;;170.30;95.90;;;;;;;-4.59;94.30;96507.90;108766;1273;22550;-80
2023/12/07 03:15:45;;;;;;;164.00;93.00;;;;;;;-4.56;94.33;96510.77;108824;1267;22524;-80
2023/12/07 03:18:14;;;;;;;177.40;98.20;;;;;;;-4.54;94.33;96516.69;108765;1273;23979;-79
2023/12/07 03:20:42;;;;;;;167.60;94.90;;;;;;;-4.51;94.31;96518.75;108800;1266;22650;-80
2023/12/07 03:23:11;;;;;;;169.30;96.70;;;;;;;-4.48;94.30;96518.66;108725;1269;22521;-80
2023/12/07 03:25:39;;;;;;;164.30;96.20;;;;;;;-4.47;94.26;96521.27;108768;1273;23857;-80
2023/12/07 03:28:07;;;;;;;166.30;91.90;;;;;;;-4.45;94.17;96520.04;108757;1273;26642;-79
2023/12/07 03:30:36;;;;;;;163.40;97.00;;;;;;;-4.43;94.30;96522.48;108785;1270;24214;-80
2023/12/07 03:33:05;;;;;;;162.00;94.70;;;;;;;-4.42;94.19;96525.67;108818;1273;22549;-80
2023/12/07 03:35:39;;;;;;;166.60;94.60;;;;;;;-4.41;94.12;96525.92;108814;1273;25521;-80
2023/12/07 03:38:08;;;;;;;166.70;93.30;;;;;;;-4.40;94.14;96526.60;108719;1273;24033;-79
2023/12/07 03:40:36;;;;;;;179.40;98.50;;;;;;;-4.39;94.09;96528.40;108808;1273;22556;-80
2023/12/07 03:43:07;;;;;;;172.30;95.10;;;;;;;-4.39;94.11;96529.08;108776;1271;22579;-79
2023/12/07 03:45:43;;;;;;;169.90;95.50;;;;;;;-4.38;94.19;96534.45;108799;1273;25027;-80
2023/12/07 03:48:12;;;;;;;168.70;94.90;;;;;;;-4.36;94.18;96537.11;108734;1273;23000;-79
2023/12/07 03:50:40;;;;;;;161.60;93.80;;;;;;;-4.34;94.18;96540.69;108803;1273;22552;-80
2023/12/07 03:53:09;;;;;;;174.80;96.80;;;;;;;-4.33;94.38;96542.36;108758;1274;22541;-80
2023/12/07 03:55:38;;;;;;;172.40;95.80;;;;;;;-4.32;94.23;96544.48;108783;1273;22594;-80
2023/12/07 03:58:07;;;;;;;164.90;96.10;;;;;;;-4.30;94.26;96546.31;108711;1273;23489;-80
2023/12/07 04:00:37;;;;;;;174.90;98.80;;;;;;;-4.29;94.34;96546.48;108778;1273;22532;-80
2023/12/07 04:03:05;;;;;;;170.80;96.40;;;;;;;-4.29;94.21;96546.30;108799;1267;22517;-80
2023/12/07 04:05:35;;;;;;;162.50;94.70;;;;;;;-4.30;94.14;96547.63;108775;1273;25255;-80
2023/12/07 04:08:05;;;;;;;165.60;93.60;;;;;;;-4.33;94.10;96553.70;108800;1273;24267;-80
2023/12/07 04:10:35;;;;;;;165.60;95.10;;;;;;;-4.37;94.10;96553.45;108771;1273;22525;-80
2023/12/07 04:13:04;;;;;;;161.60;91.80;;;;;;;-4.37;94.11;96550.78;108793;1273;25259;-80
2023/12/07 04:15:33;;;;;;;167.20;95.30;;;;;;;-4.38;94.10;96554.60;108828;1272;24215;-80
2023/12/07 04:18:02;;;;;;;164.60;93.60;;;;;;;-4.39;94.10;96552.59;108773;1267;22521;-80
2023/12/07 04:20:33;;;;;;;166.60;96.90;;;;;;;-4.40;94.09;96553.52;108772;1273;22517;-80
2023/12/07 04:23:03;;;;;;;126.10;72.80;;;;;;;-4.37;94.26;96557.51;108772;1261;22517;-80
2023/12/07 04:25:34;;;;;;;165.70;95.80;;;;;;;-4.37;94.07;96555.88;108765;1255;23201;-80
2023/12/07 04:28:02;;;;;;;166.90;95.90;;;;;;;-4.35;94.28;96557.94;108738;1273;25334;-80
2023/12/07 04:30:34;;;;;;;159.80;93.50;;;;;;;-4.34;94.23;96557.40;108770;1273;24304;-80
2023/12/07 04:33:08;;;;;;;157.70;90.50;;;;;;;-4.35;94.08;96556.95;108780;1273;22513;-80
2023/12/07 04:35:39;;;;;;;153.10;89.50;;;;;;;-4.37;94.05;96558.70;108766;1273;22524;-80
2023/12/07 04:38:10;;;;;;;167.50;93.30;;;;;;;-4.41;93.91;96558.98;108762;1270;22529;-79
2023/12/07 04:40:38;;;;;;;170.30;96.30;;;;;;;-4.46;93.95;96560.63;108797;1270;22518;-80
2023/12/07 04:43:07;;;;;;;166.40;91.80;;;;;;;-4.49;93.95;96562.56;108783;1273;25252;-80
2023/12/07 04:45:35;;;;;;;170.00;97.10;;;;;;;-4.52;93.98;96565.14;108765;1273;22524;-80
2023/12/07 04:48:05;;;;;;;174.60;96.60;;;;;;;-4.56;93.98;96570.55;108754;1273;23752;-80
2023/12/07 04:50:33;;;;;;;168.90;96.50;;;;;;;-4.57;93.97;96570.23;108751;1274;25245;-80
2023/12/07 04:53:02;;;;;;;166.00;95.30;;;;;;;-4.55;94.22;96571.48;108767;1273;22630;-80
2023/12/07 04:55:31;;;;;;;166.70;96.10;;;;;;;-4.53;94.27;96578.85;108774;1273;22576;-80
2023/12/07 04:57:59;;;;;;;153.10;87.80;;;;;;;-4.53;94.20;96579.89;108775;1273;22659;-80
2023/12/07 05:00:28;;;;;;;162.80;94.40;;;;;;;-4.55;94.13;96583.77;108781;1273;24381;-80
2023/12/07 05:02:59;;;;;;;161.40;92.40;;;;;;;-4.57;94.23;96585.11;108797;1274;25433;-80
2023/12/07 05:05:27;;;;;;;164.40;94.70;;;;;;;-4.60;94.17;96583.26;108760;1273;22534;-80
2023/12/07 05:07:58;;;;;;;165.80;91.80;;;;;;;-4.64;94.23;96581.06;108755;1273;23920;-80
2023/12/07 05:10:29;;;;;;;175.50;93.90;;;;;;;-4.67;94.24;96584.23;108770;1273;23743;-80
2023/12/07 05:12:59;;;;;;;169.60;94.80;;;;;;;-4.70;94.16;96587.72;108797;1266;22562;-80
2023/12/07 05:15:27;;;;;;;170.80;96.90;;;;;;;-4.73;94.22;96586.98;108835;1273;24135;-80
2023/12/07 05:17:55;;;;;;;167.00;96.80;;;;;;;-4.73;94.33;96588.89;108784;1273;22521;-80
2023/12/07 05:20:26;;;;;;;179.50;101.40;;;;;;;-4.73;94.42;96588.21;108822;1273;22518;-80
2023/12/07 05:22:59;;;;;;;177.90;97.60;;;;;;;-4.73;94.38;96588.21;108756;1273;24061;-80
2023/12/07 05:25:30;;;;;;;173.00;98.70;;;;;;;-4.74;94.39;96588.33;108771;1273;24229;-80
2023/12/07 05:27:59;;;;;;;187.90;101.10;;;;;;;-4.74;94.50;96591.43;108816;1273;22530;-80
2023/12/07 05:30:27;;;;;;;178.00;102.50;;;;;;;-4.75;94.54;96594.32;108752;1273;23676;-79
2023/12/07 05:32:56;;;;;;;169.80;98.80;;;;;;;-4.75;94.53;96600.38;108797;1273;22596;-80
2023/12/07 05:35:24;;;;;;;182.70;101.10;;;;;;;-4.74;94.75;96602.33;108766;1272;22712;-80
2023/12/07 05:37:55;;;;;;;190.20;102.10;;;;;;;-4.73;94.61;96604.99;108765;1273;22550;-80
2023/12/07 05:40:23;;;;;;;201.00;110.60;;;;;;;-4.73;94.74;96605.45;108795;1273;26571;-80
2023/12/07 05:42:52;;;;;;;202.90;103.30;;;;;;;-4.73;94.75;96607.34;108808;1270;23053;-79
2023/12/07 05:45:29;;;;;;;213.70;111.10;;;;;;;-4.73;94.72;96607.23;108800;1267;22676;-80
2023/12/07 05:48:03;;;;;;;182.70;91.50;;;;;;;-4.73;94.78;96607.55;108735;1271;24349;-80
2023/12/07 05:50:32;;;;;;;211.50;107.20;;;;;;;-4.72;94.90;96611.05;108723;1269;22535;-80
2023/12/07 05:53:01;;;;;;;207.70;104.10;;;;;;;-4.70;95.01;96614.77;108796;1273;22569;-80
2023/12/07 05:55:29;;;;;;;;;;;;;;;-4.68;95.09;96613.68;108850;1267;22509;-80
2023/12/07 05:57:57;;;;;;;202.30;102.30;;;;;;;-4.67;95.23;96615.04;108769;1271;22547;-80
2023/12/07 06:00:26;;;;;;;201.00;106.10;;;;;;;-4.63;95.21;96617.40;108750;1273;24213;-80
2023/12/07 06:02:54;;;;;;;184.50;102.40;;;;;;;-4.60;95.45;96620.91;108754;1273;24625;-80
2023/12/07 06:05:22;;;;;;;;;;;;;;;-4.57;95.37;96621.48;108828;1264;25687;-80
2023/12/07 06:07:53;;;;;;;176.20;88.70;;;;;;;-4.55;95.49;96623.05;108759;1270;22542;-80
2023/12/07 06:10:23;;;;;;;172.50;89.50;;;;;;;-4.52;95.61;96626.42;108745;1273;22543;-80
2023/12/07 06:12:51;;;;;;;179.00;95.70;;;;;;;-4.49;95.69;96625.71;108772;1273;22609;-80
2023/12/07 06:15:22;;;;;;;124.50;69.70;;;;;;;-4.48;95.67;96626.38;108784;1273;22519;-80
2023/12/07 06:17:51;;;;;;;185.60;97.10;;;;;;;-4.44;95.84;96631.14;108763;1273;22620;-80
2023/12/07 06:20:19;;;;;;;182.30;95.50;;;;;;;-4.41;95.87;96635.94;108724;1273;22495;-80
2023/12/07 06:22:48;;;;;;;173.80;92.50;;;;;;;-4.37;96.00;96639.80;108798;1273;22491;-80
2023/12/07 06:25:17;;;;;;;194.30;101.10;;;;;;;-4.34;96.05;96639.96;108785;1270;22555;-80
2023/12/07 06:27:45;;;;;;;192.30;100.50;;;;;;;-4.29;96.12;96644.50;108793;1273;22552;-80
2023/12/07 06:30:15;;;;;;;199.30;105.80;;;;;;;-4.26;96.14;96647.67;108784;1273;26602;-80
2023/12/07 06:32:43;;;;;;;183.00;99.90;;;;;;;-4.24;96.06;96648.20;108771;1273;22615;-80
2023/12/07 06:35:19;;;;;;;163.40;90.40;;;;;;;-4.21;96.14;96649.60;108782;1269;25045;-80
2023/12/07 06:37:48;;;;;;;165.30;92.50;;;;;;;-4.18;96.29;96651.23;108776;1270;25348;-80
2023/12/07 06:40:16;;;;;;;171.80;98.10;;;;;;;-4.14;96.30;96649.55;108752;1273;27136;-80
2023/12/07 06:42:48;;;;;;;180.20;99.10;;;;;;;-4.11;96.31;96651.84;108747;1273;22602;-80
2023/12/07 06:45:17;;;;;;;179.40;104.10;;;;;;;-4.10;96.28;96653.61;108803;1273;22543;-80
2023/12/07 06:47:45;;;;;;;194.30;105.80;;;;;;;-4.10;96.20;96654.23;108740;1270;22643;-80
2023/12/07 06:50:14;;;;;;;188.70;104.20;;;;;;;-4.07;96.28;96659.77;108747;1266;26440;-80
2023/12/07 06:52:44;;;;;;;191.30;103.40;;;;;;;-4.04;96.22;96661.88;108793;1273;22531;-80
2023/12/07 06:55:14;;;;;;;184.10;99.80;;;;;;;-4.04;96.22;96668.73;108800;1273;24637;-80
2023/12/07 06:57:43;;;;;;;180.10;102.00;;;;;;;-4.07;96.04;96671.23;108729;1271;25291;-80
2023/12/07 07:00:18;;;;;;;186.70;103.00;;;;;;;-4.10;96.06;96668.93;108743;1273;22514;-80
2023/12/07 07:02:47;;;;;;;179.60;103.70;;;;;;;-4.13;96.05;96671.02;108796;1272;22559;-80
2023/12/07 07:05:16;;;;;;;174.70;101.30;;;;;;;-4.16;95.87;96679.16;108795;1270;22539;-80
2023/12/07 07:07:46;;;;;;;183.20;103.20;;;;;;;-4.18;96.04;96678.31;108780;1273;22596;-80
2023/12/07 07:10:15;;;;;;;177.40;100.60;;;;;;;-4.17;96.16;96680.30;108769;1267;24218;-80
2023/12/07 07:12:43;;;;;;;173.20;100.00;;;;;;;-4.13;96.27;96678.19;108768;1273;22609;-80
2023/12/07 07:15:13;;;;;;;179.80;103.30;;;;;;;-4.07;96.48;96678.61;108773;1270;22502;-80
2023/12/07 07:17:49;;;;;;;166.00;97.40;;;;;;;-4.02;96.59;96679.58;108758;1267;22529;-80
2023/12/07 07:20:18;;;;;;;166.60;97.60;;;;;;;-3.99;96.53;96680.91;108770;1273;22524;-80
2023/12/07 07:22:48;;;;;;;164.90;96.10;;;;;;;-3.94;96.52;96681.16;108776;1270;22640;-80
2023/12/07 07:25:19;;;;;;;161.10;91.80;;;;;;;-3.90;96.56;96685.35;108778;1273;23899;-80
2023/12/07 07:27:47;;;;;;;167.70;92.90;;;;;;;-3.87;96.59;96689.27;108765;1271;22535;-80
2023/12/07 07:30:17;;;;;;;162.30;93.50;;;;;;;-3.86;96.61;96688.93;108724;1267;22570;-79
2023/12/07 07:32:45;;;;;;;;;;;;;;;-3.86;96.33;96691.12;108781;1273;26166;-80
2023/12/07 07:35:15;;;;;;;163.30;94.70;;;;;;;-3.89;96.32;96693.33;108772;1273;22817;-80
2023/12/07 07:37:43;;;;;;;185.20;104.40;;;;;;;-3.90;96.43;96694.64;108770;1267;24221;-80
2023/12/07 07:40:13;;;;;;;182.70;105.00;;;;;;;-3.86;96.42;96700.44;108765;1273;22986;-80
2023/12/07 07:42:42;;;;;;;182.30;101.80;;;;;;;-3.81;96.56;96701.64;108802;1273;22519;-80
2023/12/07 07:45:11;;;;;;;179.80;106.20;;;;;;;-3.76;96.49;96705.12;108791;1272;22492;-80
2023/12/07 07:47:40;;;;;;;186.90;104.30;;;;;;;-3.73;96.63;96707.02;108760;1267;22640;-80
2023/12/07 07:50:13;;;;;;;176.70;101.70;;;;;;;-3.73;96.39;96707.09;108856;1273;22636;-80
2023/12/07 07:52:42;;;;;;;183.40;105.00;;;;;;;-3.74;96.31;96706.17;108809;1273;22851;-80
2023/12/07 07:55:14;;;;;;;177.30;103.70;;;;;;;-3.74;96.33;96711.68;108722;1273;25555;-80
2023/12/07 07:57:44;;;;;;;170.00;101.50;;;;;;;-3.69;96.61;96712.66;108736;1273;25407;-80
2023/12/07 08:00:19;;;;;;;176.30;102.10;;;;;;;-3.65;96.51;96710.64;108754;1273;24266;-80
2023/12/07 08:02:49;;;;;;;165.60;98.00;;;;;;;-3.57;96.64;96715.33;108718;1273;25278;-80
2023/12/07 08:05:18;;;;;;;165.80;95.00;;;;;;;-3.50;96.74;96714.31;108779;1267;22540;-80
2023/12/07 08:07:47;;;;;;;165.00;92.90;;;;;;;-3.43;96.82;96722.41;108809;1267;22537;-80
2023/12/07 08:10:19;;;;;;;146.60;86.00;;;;;;;-3.41;96.74;96722.47;108759;1273;26597;-80
2023/12/07 08:12:47;;;;;;;147.20;85.00;;;;;;;-3.34;96.80;96726.56;108791;1266;25427;-80
2023/12/07 08:15:16;;;;;;;146.00;84.70;;;;;;;-3.26;96.81;96728.64;108767;1267;22538;-80
2023/12/07 08:17:47;;;;;;;160.90;90.00;;;;;;;-3.19;96.80;96729.31;108774;1273;22517;-80
2023/12/07 08:20:19;;;;;;;152.20;90.40;;;;;;;-3.12;96.79;96729.11;108735;1273;22538;-80
2023/12/07 08:22:49;;;;;;;161.20;93.20;;;;;;;-3.07;96.78;96731.39;108839;1273;22663;-80
2023/12/07 08:25:21;;;;;;;151.10;88.60;;;;;;;-3.04;96.56;96734.67;108823;1273;24200;-79
2023/12/07 08:27:54;;;;;;;150.30;88.10;;;;;;;-3.11;96.28;96739.92;108775;1267;25433;-79
2023/12/07 08:30:23;;;;;;;156.90;88.40;;;;;;;-3.17;96.08;96740.97;108729;1266;22534;-80
2023/12/07 08:32:51;;;;;;;152.60;87.70;;;;;;;-3.20;96.08;96743.83;108809;1266;22630;-79
2023/12/07 08:35:23;;;;;;;153.50;87.90;;;;;;;-3.21;96.06;96749.96;108788;1273;25494;-79
2023/12/07 08:37:53;;;;;;;152.60;89.60;;;;;;;-3.23;95.90;96752.98;108806;1273;22531;-79
2023/12/07 08:40:23;;;;;;;109.90;63.50;;;;;;;-3.24;96.03;96749.29;108776;1273;24221;-79
2023/12/07 08:42:55;;;;;;;152.80;89.20;;;;;;;-3.21;96.22;96755.02;108745;1273;25383;-79
2023/12/07 08:45:27;;;;;;;155.80;90.80;;;;;;;-3.15;96.41;96757.02;108800;1270;23857;-80
2023/12/07 08:47:56;;;;;;;155.60;89.10;;;;;;;-3.13;96.29;96758.77;108764;1267;25378;-79
2023/12/07 08:50:24;;;;;;;160.80;90.30;;;;;;;-3.10;96.32;96760.16;108744;1267;22534;-79
2023/12/07 08:52:53;;;;;;;155.50;90.00;;;;;;;-3.10;96.17;96763.39;108795;1273;22592;-79
2023/12/07 08:55:20;;;;;;;;;;;;;;;-3.12;96.01;96764.56;108788;1273;22499;-79
2023/12/07 08:57:49;;;;;;;150.30;90.30;;;;;;;-3.16;96.03;96762.44;108712;1273;24430;-79
2023/12/07 09:00:23;;;;;;;163.60;93.30;;;;;;;-3.18;95.89;96762.10;108798;1265;22544;-79
2023/12/07 09:02:55;;;;;;;165.00;96.40;;;;;;;-3.17;96.04;96761.47;108785;1270;22524;-80
2023/12/07 09:05:27;;;;;;;159.80;94.70;;;;;;;-3.15;96.01;96762.04;108767;1273;25471;-79
2023/12/07 09:07:58;;;;;;;161.10;98.00;;;;;;;-3.11;96.22;96763.05;108744;1273;22910;-80
2023/12/07 09:10:27;;;;;;;165.60;99.90;;;;;;;-3.08;96.25;96763.73;108799;1257;22552;-80
2023/12/07 09:12:55;;;;;;;;;;;;;;;-3.05;96.26;96760.73;108766;1270;23828;-80
2023/12/07 09:15:27;;;;;;;154.50;90.30;;;;;;;-3.02;96.25;96763.02;108776;1273;22511;-80
2023/12/07 09:17:55;;;;;;;162.50;93.90;;;;;;;-2.97;96.21;96763.44;108772;1267;25950;-79
2023/12/07 09:20:24;;;;;;;167.80;97.80;;;;;;;-2.95;96.13;96762.04;108764;1273;22041;-80
2023/12/07 09:22:54;;;;;;;162.00;95.40;;;;;;;-2.92;96.25;96762.52;108890;1273;22532;-79
2023/12/07 09:25:23;;;;;;;160.90;95.70;;;;;;;-2.84;96.42;96762.52;108790;1273;22550;-80
2023/12/07 09:27:53;;;;;;;161.40;95.50;;;;;;;-2.75;96.36;96764.91;108749;1267;25424;-80
2023/12/07 09:30:24;;;;;;;159.90;94.50;;;;;;;-2.67;96.57;96764.48;106942;1273;2472491;-80
2023/12/07 09:32:55;;;;;;;146.60;88.10;;;;;;;-2.60;96.63;96765.32;108804;1273;23792;-80
2023/12/07 09:35:24;;;;;;;111.70;67.30;;;;;;;-2.60;96.29;96761.84;108776;1267;22555;-80
2023/12/07 09:37:52;;;;;;;152.70;91.20;;;;;;;-2.59;96.33;96759.20;108769;1270;25413;-79
2023/12/07 09:40:26;;;;;;;140.30;81.20;;;;;;;-2.54;96.56;96758.52;108735;1267;22528;-79
2023/12/07 09:42:55;;;;;;;112.70;67.30;;;;;;;-2.51;96.15;96757.83;108755;1273;22553;-80
2023/12/07 09:45:24;;;;;;;114.10;66.90;;;;;;;-2.50;96.35;96755.36;108823;1273;22538;-80
2023/12/07 09:47:57;;;;;;;117.80;67.00;;;;;;;-2.45;96.24;96757.05;108788;1273;23773;-80
2023/12/07 09:50:27;;;;;;;115.00;68.30;;;;;;;-2.39;96.13;96752.36;108735;1272;22548;-80
2023/12/07 09:52:58;;;;;;;121.00;73.40;;;;;;;-2.33;96.18;96757.18;108856;1273;22641;-79
2023/12/07 09:55:26;;;;;;;119.50;72.90;;;;;;;-2.27;96.29;96755.85;108817;1272;22521;-79
2023/12/07 09:57:57;;;;;;;123.70;74.50;;;;;;;-2.16;96.50;96755.73;108738;1273;22511;-79
2023/12/07 10:00:25;;;;;;;114.90;67.40;;;;;;;-2.08;96.29;96754.14;108775;1273;23639;-80
2023/12/07 10:02:54;;;;;;;99.30;60.80;;;;;;;-2.01;96.37;96759.14;108759;1269;22908;-79
2023/12/07 10:05:22;;;;;;;100.80;60.70;;;;;;;-2.00;96.12;96757.78;108782;1266;22547;-79
2023/12/07 10:07:52;;;;;;;100.10;59.20;;;;;;;-2.01;95.82;96757.90;108788;1273;26546;-80
2023/12/07 10:10:23;;;;;;;100.10;59.70;;;;;;;-1.90;95.98;96757.70;108805;1273;22958;-80
2023/12/07 10:12:54;;;;;;;98.20;60.10;;;;;;;-1.82;96.16;96752.17;108782;1273;22565;-80
2023/12/07 10:15:24;;;;;;;92.20;55.20;;;;;;;-1.88;96.00;96748.59;108773;1273;22531;-79
2023/12/07 10:17:59;;;;;;;80.10;48.80;;;;;;;-1.93;95.87;96748.06;108778;1269;22571;-80
2023/12/07 10:20:32;;;;;;;82.10;45.60;;;;;;;-1.97;95.67;96743.14;108772;1273;25351;-79
2023/12/07 10:23:07;;;;;;;68.00;39.20;;;;;;;-1.92;96.03;96740.80;108802;1270;24009;-79
2023/12/07 10:25:38;;;;;;;72.70;40.70;;;;;;;-1.94;95.67;96736.75;108826;1267;24201;-79
2023/12/07 10:28:07;;;;;;;65.50;38.60;;;;;;;-1.96;95.62;96739.50;108791;1267;22602;-79
2023/12/07 10:30:35;;;;;;;;;;;;;;;-1.98;95.32;96739.23;108809;1273;25460;-80
2023/12/07 10:33:07;;;;;;;64.50;34.80;;;;;;;-2.01;95.43;96742.59;108781;1267;23812;-79
2023/12/07 10:35:40;;;;;;;53.80;28.70;;;;;;;-2.05;95.67;96742.52;108773;1266;22721;-80
2023/12/07 10:38:08;;;;;;;50.70;27.40;;;;;;;-2.11;95.60;96746.05;108741;1270;24219;-80
2023/12/07 10:40:37;;;;;;;64.30;32.60;;;;;;;-2.17;95.44;96747.54;108744;1273;22656;-80
2023/12/07 10:43:07;;;;;;;64.20;37.10;;;;;;;-2.19;95.47;96752.61;108789;1273;22655;-80
2023/12/07 10:45:37;;;;;;;58.00;29.50;;;;;;;-2.16;95.41;96754.70;108785;1270;25436;-79
2023/12/07 10:48:09;;;;;;;64.30;35.50;;;;;;;-2.15;95.54;96751.89;108800;1273;26485;-80
2023/12/07 10:50:43;;;;;;;69.60;39.50;;;;;;;-2.12;95.65;96755.70;108813;1269;23062;-80
2023/12/07 10:53:22;;;;;;;66.90;36.60;;;;;;;-2.11;95.45;96757.95;108768;1273;22929;-79
2023/12/07 10:55:56;;;;;;;78.50;43.80;;;;;;;-2.05;95.63;96756.70;108797;1272;22534;-79
2023/12/07 10:58:26;;;;;;;65.30;39.10;;;;;;;-1.96;95.63;96755.61;108768;1273;22520;-79
2023/12/07 11:00:55;;;;;;;65.90;37.30;;;;;;;-1.90;95.63;96753.27;108762;1267;22516;-79
2023/12/07 11:03:29;;;;;;;76.60;45.50;;;;;;;-1.90;95.66;96750.83;108792;1273;22531;-80
2023/12/07 11:05:58;;;;;;;63.50;39.10;;;;;;;-1.89;95.68;96751.30;108788;1273;22564;-80
2023/12/07 11:08:33;;;;;;;68.20;39.30;;;;;;;-1.82;95.78;96749.21;108772;1267;23048;-79
2023/12/07 11:11:15;;;;;;;69.30;40.30;;;;;;;-1.74;95.58;96752.30;108802;1273;22524;-80
2023/12/07 11:13:51;;;;;;;52.00;29.70;;;;;;;-1.76;95.50;96751.30;108762;1273;22513;-80
2023/12/07 11:16:30;;;;;;;69.50;38.50;;;;;;;-1.75;95.22;96754.34;108765;1273;24766;-80